Time;durP1;ratioP1;P1;durP2;ratioP2;P2;SDS_P1;SDS_P2;PMS_P1;PMS_P2;Temp;Humidity;BMP_temperature;BMP_pressure;BME280_temperature;BME280_humidity;BME280_pressure;Samples;Min_cycle;Max_cycle;Signal;HPM_P1;HPM_P2
2021/10/29 00:01:11;;;;;;;18.27;12.30;;;8.40;99.90;;;;;;4866462;29;20038;-83
2021/10/29 00:03:38;;;;;;;16.33;11.73;;;8.40;99.90;;;;;;4854701;29;20050;-81
2021/10/29 00:06:05;;;;;;;18.20;11.43;;;8.40;99.90;;;;;;4861718;29;20037;-81
2021/10/29 00:08:31;;;;;;;16.27;11.45;;;8.40;99.90;;;;;;4860442;29;20048;-81
2021/10/29 00:11:16;;;;;;;19.83;13.27;;;8.40;99.90;;;;;;4859645;29;20038;-85
2021/10/29 00:14:09;;;;;;;17.17;12.65;;;8.40;99.90;;;;;;4832550;29;20465;-84
2021/10/29 00:17:04;;;;;;;18.48;11.65;;;8.40;99.90;;;;;;4824323;29;20057;-83
2021/10/29 00:19:31;;;;;;;17.67;11.70;;;8.40;99.90;;;;;;4844183;29;20493;-82
2021/10/29 00:21:58;;;;;;;16.98;11.73;;;8.40;99.90;;;;;;4831270;29;20873;-82
2021/10/29 00:24:28;;;;;;;20.75;13.95;;;8.40;99.90;;;;;;4859620;29;21189;-82
2021/10/29 00:26:58;;;;;;;22.75;14.38;;;8.40;99.90;;;;;;4846638;29;20037;-82
2021/10/29 00:29:25;;;;;;;22.23;13.80;;;8.40;99.90;;;;;;4843787;29;20045;-82
2021/10/29 00:31:52;;;;;;;21.05;13.93;;;8.40;99.90;;;;;;4826876;29;20053;-82
2021/10/29 00:34:19;;;;;;;18.63;12.20;;;8.40;99.90;;;;;;4860222;29;20042;-82
2021/10/29 00:36:46;;;;;;;19.67;13.50;;;8.40;99.90;;;;;;4860178;29;20033;-82
2021/10/29 00:39:12;;;;;;;17.85;11.95;;;8.40;99.90;;;;;;4857891;29;20029;-82
2021/10/29 00:41:39;;;;;;;18.67;13.10;;;8.40;99.90;;;;;;4843274;29;20038;-82
2021/10/29 00:44:07;;;;;;;17.63;12.43;;;8.40;99.90;;;;;;4801099;29;20048;-82
2021/10/29 00:46:34;;;;;;;18.75;12.63;;;8.40;99.90;;;;;;4861772;29;20052;-82
2021/10/29 00:49:01;;;;;;;16.92;11.75;;;8.30;99.90;;;;;;4830561;29;20060;-81
2021/10/29 00:51:27;;;;;;;18.95;12.70;;;8.40;99.90;;;;;;4861053;29;20033;-82
2021/10/29 00:53:54;;;;;;;17.83;11.95;;;8.40;99.90;;;;;;4818383;29;20058;-82
2021/10/29 00:56:21;;;;;;;16.35;12.05;;;8.30;99.90;;;;;;4828792;29;20045;-82
2021/10/29 00:58:48;;;;;;;19.65;12.25;;;8.30;99.90;;;;;;4843293;29;20489;-82
2021/10/29 01:01:14;;;;;;;18.73;13.60;;;8.30;99.90;;;;;;4842577;29;20034;-81
2021/10/29 01:03:42;;;;;;;18.13;12.70;;;8.30;99.90;;;;;;4844114;29;20041;-82
2021/10/29 01:06:10;;;;;;;18.27;12.93;;;8.30;99.90;;;;;;4862820;29;20442;-81
2021/10/29 01:08:37;;;;;;;19.83;12.73;;;8.20;99.90;;;;;;4847110;29;20485;-82
2021/10/29 01:11:04;;;;;;;18.98;12.45;;;8.20;99.90;;;;;;4830756;29;20042;-82
2021/10/29 01:13:32;;;;;;;17.35;11.77;;;8.30;99.90;;;;;;4826950;29;20041;-82
2021/10/29 01:15:58;;;;;;;18.23;12.20;;;8.30;99.90;;;;;;4843234;29;20038;-82
2021/10/29 01:18:25;;;;;;;16.90;11.90;;;8.30;99.90;;;;;;4827840;29;20058;-82
2021/10/29 01:20:52;;;;;;;16.40;12.18;;;8.30;99.90;;;;;;4857791;29;20030;-82
2021/10/29 01:23:19;;;;;;;17.05;11.07;;;8.30;99.90;;;;;;4812475;29;20840;-82
2021/10/29 01:25:45;;;;;;;18.30;13.10;;;8.30;99.90;;;;;;4842380;29;20053;-82
2021/10/29 01:28:13;;;;;;;17.88;12.55;;;8.20;99.90;;;;;;4827445;29;20033;-82
2021/10/29 01:30:40;;;;;;;17.48;12.07;;;8.20;99.90;;;;;;4829877;29;20499;-81
2021/10/29 01:33:07;;;;;;;18.45;13.23;;;8.20;99.90;;;;;;4828991;29;20094;-81
2021/10/29 01:35:33;;;;;;;19.80;13.20;;;8.20;99.90;;;;;;4859664;29;20045;-82
2021/10/29 01:38:00;;;;;;;21.25;14.63;;;8.20;99.90;;;;;;4827507;29;20056;-82
2021/10/29 01:40:26;;;;;;;18.85;13.02;;;8.20;99.90;;;;;;4861704;29;20049;-81
2021/10/29 01:42:53;;;;;;;20.27;13.30;;;8.20;99.90;;;;;;4826637;29;20056;-82
2021/10/29 01:45:19;;;;;;;17.63;12.35;;;8.20;99.90;;;;;;4857948;29;20034;-82
2021/10/29 01:47:46;;;;;;;19.27;11.95;;;8.10;99.90;;;;;;4811110;29;20406;-82
2021/10/29 01:50:12;;;;;;;21.15;12.70;;;8.10;99.90;;;;;;4857979;29;20064;-82
2021/10/29 01:52:39;;;;;;;17.23;12.20;;;8.10;99.90;;;;;;4827788;29;20061;-82
2021/10/29 01:55:07;;;;;;;17.10;11.15;;;8.20;99.90;;;;;;4843513;29;20061;-82
2021/10/29 01:57:33;;;;;;;15.43;10.85;;;8.10;99.90;;;;;;4829173;29;20472;-82
2021/10/29 02:00:00;;;;;;;15.98;10.23;;;8.10;99.90;;;;;;4856998;29;20037;-82
2021/10/29 02:02:26;;;;;;;13.20;9.82;;;8.10;99.90;;;;;;4843013;29;20687;-82
2021/10/29 02:04:53;;;;;;;16.35;11.93;;;8.10;99.90;;;;;;4841636;29;20052;-82
2021/10/29 02:07:19;;;;;;;19.05;12.02;;;8.10;99.90;;;;;;4828920;29;20049;-82
2021/10/29 02:09:46;;;;;;;19.08;12.70;;;8.10;99.90;;;;;;4856996;29;20061;-87
2021/10/29 02:12:15;;;;;;;19.83;11.70;;;8.10;99.90;;;;;;4816601;29;20060;-82
2021/10/29 02:14:42;;;;;;;15.10;10.85;;;8.10;99.90;;;;;;4826067;29;20037;-81
2021/10/29 02:17:08;;;;;;;14.60;10.43;;;8.10;99.90;;;;;;4844332;29;20486;-87
2021/10/29 02:19:35;;;;;;;15.02;10.25;;;8.10;99.90;;;;;;4843260;29;20041;-82
2021/10/29 02:22:02;;;;;;;20.30;12.05;;;8.10;99.90;;;;;;4856641;29;20041;-83
2021/10/29 02:24:29;;;;;;;13.77;10.48;;;8.10;99.90;;;;;;4829250;29;20443;-80
2021/10/29 02:26:56;;;;;;;16.60;11.55;;;8.10;99.90;;;;;;4843022;29;20037;-81
2021/10/29 02:29:22;;;;;;;14.82;9.85;;;8.10;99.90;;;;;;4842200;29;20045;-81
2021/10/29 02:31:49;;;;;;;16.40;10.68;;;8.10;99.90;;;;;;4861166;29;20645;-86
2021/10/29 02:34:15;;;;;;;17.67;11.43;;;8.10;99.90;;;;;;4845003;29;20742;-87
2021/10/29 02:36:44;;;;;;;14.40;9.32;;;8.10;99.90;;;;;;4817264;29;20041;-89
2021/10/29 02:39:11;;;;;;;15.15;10.05;;;8.10;99.90;;;;;;4842930;29;20072;-85
2021/10/29 02:41:38;;;;;;;18.02;11.02;;;8.10;99.90;;;;;;4843063;29;20045;-88
2021/10/29 02:44:05;;;;;;;14.93;9.73;;;8.10;99.90;;;;;;4833770;29;20059;-88
2021/10/29 02:46:31;;;;;;;11.88;8.93;;;8.10;99.90;;;;;;4831358;29;20041;-88
2021/10/29 02:48:58;;;;;;;16.70;9.82;;;8.10;99.90;;;;;;4845089;29;20410;-88
2021/10/29 02:51:25;;;;;;;12.15;8.23;;;8.10;99.90;;;;;;4857138;29;20037;-84
2021/10/29 02:53:52;;;;;;;11.18;7.82;;;8.10;99.90;;;;;;4843187;29;20057;-86
2021/10/29 02:56:19;;;;;;;11.77;8.60;;;8.10;99.90;;;;;;4815191;29;20049;-88
2021/10/29 02:58:46;;;;;;;13.13;8.55;;;8.10;99.90;;;;;;4831602;29;20045;-88
2021/10/29 03:01:12;;;;;;;11.63;8.45;;;8.10;99.90;;;;;;4826216;29;20482;-86
2021/10/29 03:03:53;;;;;;;11.18;7.55;;;8.00;99.90;;;;;;4830013;29;20038;-88
2021/10/29 03:06:32;;;;;;;14.50;9.13;;;8.00;99.90;;;;;;4857748;29;20033;-86
2021/10/29 03:09:05;;;;;;;15.40;9.43;;;8.00;99.90;;;;;;4829226;29;20050;-88
2021/10/29 03:11:40;;;;;;;13.63;8.60;;;8.00;99.90;;;;;;4843406;29;20470;-87
2021/10/29 03:14:08;;;;;;;17.75;12.73;;;8.00;99.90;;;;;;4826694;29;20490;-82
2021/10/29 03:16:49;;;;;;;12.05;9.23;;;7.90;99.90;;;;;;4842492;29;20061;-86
2021/10/29 03:19:31;;;;;;;;;;;7.90;99.90;;;;;;4847624;29;20053;-89
2021/10/29 03:21:58;;;;;;;11.63;6.85;;;7.90;99.90;;;;;;4848496;29;19923;-89
2021/10/29 03:24:28;;;;;;;12.77;8.13;;;7.90;99.90;;;;;;4843847;29;20037;-89
2021/10/29 03:26:55;;;;;;;13.50;8.20;;;7.90;99.90;;;;;;4857734;29;20478;-89
2021/10/29 03:29:25;;;;;;;13.73;8.60;;;7.80;99.90;;;;;;4842821;29;20054;-84
2021/10/29 03:32:01;;;;;;;13.50;8.80;;;7.90;99.90;;;;;;4842301;29;20040;-84
2021/10/29 03:34:27;;;;;;;11.10;8.15;;;7.80;99.90;;;;;;4830430;29;20064;-84
2021/10/29 03:36:54;;;;;;;13.57;8.60;;;7.80;99.90;;;;;;4799097;29;20489;-85
2021/10/29 03:39:30;;;;;;;11.25;8.10;;;7.80;99.90;;;;;;4861262;29;20033;-84
2021/10/29 03:42:04;;;;;;;13.35;8.57;;;7.80;99.90;;;;;;4847288;29;20037;-84
2021/10/29 03:47:30;;;;;;;12.18;7.78;;;7.80;99.90;;;;;;4866330;29;20053;-84
2021/10/29 03:50:15;;;;;;;13.90;9.15;;;7.70;99.90;;;;;;4844437;29;20057;-85
2021/10/29 03:55:39;;;;;;;13.57;9.02;;;7.70;99.90;;;;;;4857302;29;20053;-85
2021/10/29 03:58:07;;;;;;;13.57;9.30;;;7.80;99.90;;;;;;4830443;29;20037;-84
2021/10/29 04:00:34;;;;;;;14.70;9.13;;;7.80;99.90;;;;;;4845991;29;20029;-84
2021/10/29 04:03:04;;;;;;;13.45;8.93;;;7.80;99.90;;;;;;4860452;29;20045;-84
2021/10/29 04:05:34;;;;;;;13.15;9.40;;;7.80;99.90;;;;;;4854960;29;20086;-85
2021/10/29 04:08:01;;;;;;;16.45;10.57;;;7.90;99.90;;;;;;4846752;29;20045;-84
2021/10/29 04:10:30;;;;;;;13.43;9.55;;;7.80;99.90;;;;;;4830175;29;20481;-84
2021/10/29 04:13:00;;;;;;;12.90;8.98;;;7.90;99.90;;;;;;4843875;29;20053;-85
2021/10/29 04:15:27;;;;;;;12.75;9.23;;;7.90;99.90;;;;;;4832832;29;20041;-83
2021/10/29 04:18:33;;;;;;;13.85;9.60;;;7.90;99.90;;;;;;4860635;29;20049;-93
2021/10/29 04:21:01;;;;;;;11.23;8.60;;;8.00;99.90;;;;;;4860841;29;20045;-85
2021/10/29 04:23:40;;;;;;;11.88;8.77;;;8.00;99.90;;;;;;4841837;29;20036;-86
2021/10/29 04:26:22;;;;;;;8.95;6.93;;;8.00;99.90;;;;;;4845096;29;20393;-85
2021/10/29 04:28:56;;;;;;;13.15;8.43;;;8.00;99.90;;;;;;4844773;29;20042;-85
2021/10/29 04:31:41;;;;;;;16.42;10.02;;;8.00;99.90;;;;;;4844419;29;20049;-86
2021/10/29 04:34:26;;;;;;;13.55;8.45;;;8.00;99.90;;;;;;4829496;29;20046;-86
2021/10/29 04:37:03;;;;;;;12.02;9.38;;;8.10;99.90;;;;;;4861249;29;20033;-85
2021/10/29 04:39:31;;;;;;;12.20;8.77;;;8.10;99.90;;;;;;4862265;29;20054;-85
2021/10/29 04:42:01;;;;;;;14.45;9.48;;;8.10;99.90;;;;;;4844266;29;20049;-85
2021/10/29 04:44:28;;;;;;;12.35;8.88;;;8.10;99.90;;;;;;4827315;29;20054;-84
2021/10/29 04:46:57;;;;;;;13.07;9.15;;;8.10;99.90;;;;;;4862578;29;20524;-84
2021/10/29 04:49:24;;;;;;;12.43;9.02;;;8.20;99.90;;;;;;4844188;29;20050;-85
2021/10/29 04:51:53;;;;;;;11.27;8.55;;;8.20;99.90;;;;;;4829995;29;20054;-85
2021/10/29 04:54:27;;;;;;;14.57;8.50;;;8.20;99.90;;;;;;4829479;29;20513;-84
2021/10/29 04:56:54;;;;;;;15.65;9.50;;;8.30;99.90;;;;;;4828585;29;20049;-84
2021/10/29 04:59:20;;;;;;;12.25;8.98;;;8.20;99.90;;;;;;4813316;29;20062;-83
2021/10/29 05:01:47;;;;;;;13.13;8.77;;;8.20;99.90;;;;;;4851694;29;20037;-84
2021/10/29 05:04:19;;;;;;;16.38;9.32;;;8.30;99.90;;;;;;4844443;29;20037;-84
2021/10/29 05:06:50;;;;;;;11.95;8.60;;;8.30;99.90;;;;;;4846147;29;20053;-84
2021/10/29 05:09:22;;;;;;;10.98;8.50;;;8.30;99.90;;;;;;4841649;29;20053;-83
2021/10/29 05:11:54;;;;;;;11.13;8.15;;;8.30;99.90;;;;;;4844005;29;20061;-84
2021/10/29 05:14:21;;;;;;;12.18;8.60;;;8.30;99.90;;;;;;4830689;29;20049;-84
2021/10/29 05:16:51;;;;;;;13.00;8.25;;;8.40;99.90;;;;;;4843807;29;20727;-84
2021/10/29 05:19:18;;;;;;;12.27;9.20;;;8.40;99.90;;;;;;4829359;29;20038;-83
2021/10/29 05:21:47;;;;;;;13.07;9.45;;;8.40;99.90;;;;;;4859293;29;20060;-84
2021/10/29 05:24:47;;;;;;;11.75;8.40;;;8.40;99.90;;;;;;4857443;29;20033;-85
2021/10/29 05:27:52;;;;;;;11.93;7.97;;;8.40;99.90;;;;;;4833040;29;20033;-85
2021/10/29 05:31:09;;;;;;;10.57;8.25;;;8.40;99.90;;;;;;4836970;29;20034;-85
2021/10/29 05:34:28;;;;;;;13.77;8.32;;;8.40;99.90;;;;;;4850409;29;20050;-85
2021/10/29 05:37:39;;;;;;;13.18;8.52;;;8.30;99.90;;;;;;4833305;29;20054;-85
2021/10/29 05:40:30;;;;;;;10.93;8.30;;;8.40;99.90;;;;;;4864979;29;20049;-84
2021/10/29 05:43:39;;;;;;;12.20;9.07;;;8.30;99.90;;;;;;4860925;29;20049;-85
2021/10/29 05:46:09;;;;;;;13.77;10.40;;;8.30;99.90;;;;;;4872673;29;20061;-85
2021/10/29 05:49:10;;;;;;;12.63;9.05;;;8.30;99.90;;;;;;4836427;29;20047;-85
2021/10/29 05:52:14;;;;;;;15.45;10.25;;;8.30;99.90;;;;;;4878420;29;20400;-85
2021/10/29 05:57:45;;;;;;;18.55;12.88;;;8.40;99.90;;;;;;4879773;29;20044;-84
2021/10/29 06:00:31;;;;;;;17.88;10.43;;;8.30;99.90;;;;;;4877611;29;20059;-83
2021/10/29 06:04:00;;;;;;;17.42;11.80;;;8.40;99.90;;;;;;4867259;29;20044;-86
2021/10/29 06:07:12;;;;;;;22.75;13.27;;;8.40;99.90;;;;;;4863634;29;20041;-86
2021/10/29 06:10:09;;;;;;;15.02;11.07;;;8.40;99.90;;;;;;4876487;29;20045;-82
2021/10/29 06:13:20;;;;;;;15.23;9.70;;;8.50;99.90;;;;;;4827577;29;20045;-82
2021/10/29 06:17:16;;;;;;;13.00;9.48;;;8.50;99.90;;;;;;4849581;29;20058;-82
2021/10/29 06:20:32;;;;;;;12.88;9.27;;;8.50;99.90;;;;;;4859547;29;20033;-83
2021/10/29 06:23:06;;;;;;;11.55;8.88;;;8.50;99.90;;;;;;4840996;29;20042;-85
2021/10/29 06:26:00;;;;;;;13.45;8.52;;;8.50;99.90;;;;;;4804854;29;20264;-84
2021/10/29 06:28:31;;;;;;;16.42;9.75;;;8.50;99.90;;;;;;4841728;29;20068;-84
2021/10/29 06:30:58;;;;;;;15.30;11.02;;;8.50;99.90;;;;;;4842529;29;20033;-84
2021/10/29 06:33:29;;;;;;;17.85;10.30;;;8.50;99.90;;;;;;4827768;29;20064;-84
2021/10/29 06:36:10;;;;;;;14.60;10.57;;;8.50;99.90;;;;;;4829795;29;20505;-84
2021/10/29 06:38:48;;;;;;;15.23;11.10;;;8.50;99.90;;;;;;4857572;29;20029;-84
2021/10/29 06:41:16;;;;;;;14.48;10.18;;;8.50;99.90;;;;;;4827068;29;20056;-84
2021/10/29 06:44:11;;;;;;;11.98;8.98;;;8.60;99.90;;;;;;4827935;29;20058;-84
2021/10/29 07:00:10;;;;;;;12.77;9.00;;;8.60;99.90;;;;;;4844172;29;20057;-84
2021/10/29 07:40:18;;;;;;;14.48;10.48;;;9.60;99.90;;;;;;4857315;29;20066;-90
2021/10/29 07:43:55;;;;;;;12.50;9.20;;;9.70;99.90;;;;;;4856586;29;20061;-86
2021/10/29 07:50:50;;;;;;;13.55;8.93;;;9.80;99.90;;;;;;4826919;29;20053;-88
2021/10/29 07:53:30;;;;;;;10.15;7.97;;;9.90;99.90;;;;;;4795699;29;20042;-84
2021/10/29 07:55:58;;;;;;;11.18;8.32;;;10.00;99.90;;;;;;4792773;29;20064;-80
2021/10/29 07:58:42;;;;;;;13.27;8.02;;;10.10;99.90;;;;;;4823334;29;20054;-94
2021/10/29 08:01:11;;;;;;;14.65;8.38;;;10.20;99.90;;;;;;4801523;29;20491;-85
2021/10/29 08:03:51;;;;;;;12.30;8.73;;;10.20;99.90;;;;;;4820115;29;20148;-86
2021/10/29 08:06:24;;;;;;;11.95;7.78;;;10.40;99.90;;;;;;4812264;29;20046;-82
2021/10/29 08:09:16;;;;;;;14.75;11.00;;;10.40;99.90;;;;;;4798441;29;20042;-84
2021/10/29 08:11:44;;;;;;;12.68;9.75;;;10.50;99.90;;;;;;4780643;29;20062;-82
2021/10/29 08:14:10;;;;;;;11.35;8.20;;;10.60;99.90;;;;;;4823277;29;20057;-81
2021/10/29 08:16:37;;;;;;;16.50;11.93;;;10.70;99.90;;;;;;4820350;29;20049;-82
2021/10/29 08:19:04;;;;;;;14.93;10.48;;;10.80;99.90;;;;;;4841571;29;20037;-81
2021/10/29 08:21:30;;;;;;;16.48;10.05;;;10.90;99.90;;;;;;4829868;29;20034;-86
2021/10/29 08:25:03;;;;;;;13.35;9.32;;;11.00;99.90;;;;;;4843599;29;20041;-83
2021/10/29 08:28:07;;;;;;;13.35;9.38;;;11.10;99.90;;;;;;4858447;29;20045;-83
2021/10/29 08:30:35;;;;;;;17.05;10.40;;;11.20;99.90;;;;;;4860148;29;20041;-84
2021/10/29 08:46:42;;;;;;;9.48;6.95;;;11.70;99.90;;;;;;4861557;29;20311;-85
2021/10/29 08:49:24;;;;;;;8.70;7.15;;;11.90;99.90;;;;;;4858113;29;20567;-84
2021/10/29 08:56:37;;;;;;;12.48;8.05;;;12.10;99.90;;;;;;4875197;29;20061;-84
2021/10/29 08:59:33;;;;;;;;;;;;;;;;;;;;;
2021/10/29 09:03:19;;;;;;;12.93;9.63;;;12.40;99.90;;;;;;4840447;29;20514;-84
2021/10/29 09:33:13;;;;;;;12.18;8.70;;;13.50;99.90;;;;;;4881987;29;20036;-87
2021/10/29 09:35:42;;;;;;;13.80;8.90;;;13.60;99.90;;;;;;4887787;29;20457;-84
2021/10/29 09:38:25;;;;;;;14.55;8.60;;;13.70;99.90;;;;;;4867399;29;20040;-84
2021/10/29 09:41:27;;;;;;;16.77;9.50;;;13.80;99.90;;;;;;4896329;29;20840;-89
2021/10/29 09:44:20;;;;;;;17.50;10.57;;;13.90;99.90;;;;;;4899346;29;20317;-87
2021/10/29 09:47:05;;;;;;;13.95;9.45;;;14.00;99.90;;;;;;4853234;29;20056;-85
2021/10/29 09:53:07;;;;;;;12.43;7.80;;;14.40;99.90;;;;;;4863840;29;20452;-83
2021/10/29 09:59:01;;;;;;;11.35;7.65;;;14.80;99.90;;;;;;4838727;29;20044;-82
2021/10/29 10:02:17;;;;;;;11.80;7.32;;;15.10;99.90;;;;;;4878308;29;20037;-86
2021/10/29 10:10:49;;;;;;;;;;;;;;;;;;;;;
2021/10/29 10:18:48;;;;;;;7.40;4.65;;;16.40;99.90;;;;;;4730731;30;20044;-86
2021/10/29 10:22:34;;;;;;;8.68;5.10;;;16.80;99.90;;;;;;4688169;30;20044;-88
2021/10/29 10:52:21;;;;;;;7.78;5.13;;;18.70;99.90;;;;;;4811170;29;20054;-88
2021/10/29 11:13:10;;;;;;;9.63;5.50;;;16.70;99.90;;;;;;4769478;29;20061;-87
2021/10/29 11:15:55;;;;;;;11.80;6.93;;;16.60;99.90;;;;;;4859563;29;20055;-83
2021/10/29 11:18:29;;;;;;;12.40;5.35;;;16.50;99.90;;;;;;4854792;29;20041;-90
2021/10/29 11:21:21;;;;;;;;;;;16.50;99.90;;;;;;4879261;29;20048;-91
2021/10/29 11:24:00;;;;;;;10.30;7.25;;;16.40;99.90;;;;;;4886894;29;19926;-91
2021/10/29 11:26:42;;;;;;;12.50;10.48;;;16.40;99.90;;;;;;4872318;29;20535;-87
2021/10/29 11:29:38;;;;;;;;;;;16.40;99.90;;;;;;4899269;29;20051;-86
2021/10/29 11:32:52;;;;;;;9.98;4.97;;;16.40;99.90;;;;;;4874305;29;20323;-88
2021/10/29 11:35:33;;;;;;;11.70;5.93;;;16.40;99.90;;;;;;4866968;29;20558;-85
2021/10/29 11:43:10;;;;;;;6.22;4.05;;;16.40;99.90;;;;;;4889167;29;20164;-83
2021/10/29 11:45:46;;;;;;;10.30;5.20;;;16.30;99.90;;;;;;4825627;29;20652;-84
2021/10/29 11:48:13;;;;;;;12.35;5.28;;;16.20;99.90;;;;;;4836387;29;20060;-85
2021/10/29 11:50:40;;;;;;;6.32;5.10;;;16.30;99.90;;;;;;4853231;29;20056;-83
2021/10/29 11:53:45;;;;;;;7.22;5.22;;;16.40;99.90;;;;;;4854034;29;20041;-88
2021/10/29 11:57:08;;;;;;;7.93;4.57;;;16.50;99.90;;;;;;4880872;29;20052;-85
2021/10/29 12:05:49;;;;;;;7.22;4.60;;;16.50;99.90;;;;;;4881012;29;20040;-87
2021/10/29 12:08:45;;;;;;;12.05;5.47;;;16.60;99.90;;;;;;4903153;29;20106;-87
2021/10/29 12:11:12;;;;;;;13.85;6.13;;;16.60;99.90;;;;;;4888232;29;20404;-86
2021/10/29 12:18:31;;;;;;;7.25;4.50;;;16.60;99.90;;;;;;4842298;29;20044;-86
2021/10/29 12:21:18;;;;;;;10.32;4.82;;;16.60;99.90;;;;;;4864793;29;20045;-87
2021/10/29 12:23:52;;;;;;;8.45;4.38;;;16.60;99.90;;;;;;4850479;29;20030;-88
2021/10/29 12:26:29;;;;;;;9.93;5.90;;;16.60;99.90;;;;;;4855603;29;20048;-87
2021/10/29 12:29:21;;;;;;;10.13;4.93;;;16.60;99.90;;;;;;4885191;29;20060;-87
2021/10/29 12:38:37;;;;;;;7.88;5.28;;;16.70;99.90;;;;;;4870856;29;20036;-87
2021/10/29 13:03:58;;;;;;;9.88;5.25;;;16.10;99.90;;;;;;4883279;29;20048;-80
2021/10/29 13:06:33;;;;;;;7.85;5.22;;;16.10;99.90;;;;;;4881338;29;20369;-82
2021/10/29 13:09:02;;;;;;;7.68;5.40;;;16.00;99.90;;;;;;4894918;29;20039;-80
2021/10/29 13:11:38;;;;;;;9.45;6.63;;;16.00;99.90;;;;;;4880654;29;20043;-80
2021/10/29 13:14:06;;;;;;;9.93;5.97;;;16.00;99.90;;;;;;4898999;29;20044;-81
2021/10/29 13:16:34;;;;;;;10.50;7.00;;;15.90;99.90;;;;;;4872549;29;20039;-82
2021/10/29 13:19:29;;;;;;;9.35;6.43;;;15.90;99.90;;;;;;4894572;29;20048;-81
2021/10/29 13:36:15;;;;;;;7.30;4.40;;;15.80;99.90;;;;;;4888078;29;20059;-83
2021/10/29 14:28:43;;;;;;;10.18;5.68;;;15.60;99.90;;;;;;4860883;29;20044;-84
2021/10/29 14:31:16;;;;;;;8.82;5.10;;;15.60;99.90;;;;;;4915720;29;20047;-78
2021/10/29 14:36:39;;;;;;;8.95;4.40;;;15.60;99.90;;;;;;4891839;29;19919;-87
2021/10/29 14:39:10;;;;;;;6.03;3.63;;;15.60;99.90;;;;;;4882295;29;20044;-86
2021/10/29 14:44:27;;;;;;;6.88;4.60;;;15.50;99.90;;;;;;4893430;29;20040;-84
2021/10/29 14:47:15;;;;;;;7.45;4.75;;;15.50;99.90;;;;;;4863687;29;20056;-77
2021/10/29 15:47:07;;;;;;;5.50;3.03;;;15.00;99.90;;;;;;4860537;29;20059;-79
2021/10/29 15:49:36;;;;;;;5.78;3.30;;;15.00;99.90;;;;;;4893114;29;20029;-78
2021/10/29 15:52:15;;;;;;;6.20;4.50;;;15.00;99.90;;;;;;4882613;29;20338;-79
2021/10/29 15:54:53;;;;;;;11.27;4.05;;;14.90;99.90;;;;;;4852825;29;20040;-78
2021/10/29 15:57:25;;;;;;;7.90;4.28;;;14.90;99.90;;;;;;4885095;29;20060;-78
2021/10/29 16:03:11;;;;;;;6.57;3.08;;;14.90;99.90;;;;;;4902322;29;20044;-81
2021/10/29 16:18:59;;;;;;;4.32;3.03;;;14.90;99.90;;;;;;4888974;29;20032;-83
2021/10/29 16:21:26;;;;;;;6.15;3.20;;;15.00;99.90;;;;;;4888786;29;20043;-83
2021/10/29 16:23:52;;;;;;;5.28;3.50;;;15.00;99.90;;;;;;4871990;29;20548;-85
2021/10/29 16:26:21;;;;;;;6.70;2.67;;;15.10;99.90;;;;;;4871578;29;20040;-84
2021/10/29 16:28:50;;;;;;;5.05;2.88;;;15.10;99.90;;;;;;4882407;29;20036;-83
2021/10/29 16:31:19;;;;;;;8.27;3.40;;;15.10;99.90;;;;;;4863211;29;20039;-82
2021/10/29 16:33:45;;;;;;;7.32;3.42;;;15.10;99.90;;;;;;4901935;29;20044;-84
2021/10/29 16:36:13;;;;;;;5.78;3.17;;;15.10;99.90;;;;;;4886503;29;20040;-83
2021/10/29 16:38:40;;;;;;;3.88;2.25;;;15.10;99.90;;;;;;4901971;29;20044;-85
2021/10/29 16:41:07;;;;;;;4.22;2.80;;;15.10;99.90;;;;;;4869714;29;20048;-84
2021/10/29 16:43:35;;;;;;;4.43;2.72;;;15.20;99.90;;;;;;4903616;29;20048;-85
2021/10/29 16:46:02;;;;;;;8.02;3.97;;;15.20;99.90;;;;;;4909275;29;20036;-84
2021/10/29 16:48:29;;;;;;;7.75;3.08;;;15.00;99.90;;;;;;4890320;29;20045;-85
2021/10/29 16:50:55;;;;;;;4.55;2.53;;;14.90;99.90;;;;;;4906687;29;20051;-85
2021/10/29 16:53:22;;;;;;;5.22;2.30;;;14.70;99.90;;;;;;4875101;29;20427;-87
2021/10/29 16:55:49;;;;;;;4.25;2.00;;;14.50;99.90;;;;;;4907033;29;20040;-79
2021/10/29 16:58:16;;;;;;;4.88;2.90;;;14.40;99.90;;;;;;4922455;29;20056;-84
2021/10/29 17:00:43;;;;;;;4.63;2.90;;;14.30;99.90;;;;;;4897516;29;20028;-78
2021/10/29 17:03:11;;;;;;;4.32;2.13;;;14.20;99.90;;;;;;4869724;29;20044;-81
2021/10/29 17:06:28;;;;;;;8.95;3.58;;;14.10;99.90;;;;;;4864679;29;20460;-82
2021/10/29 17:08:55;;;;;;;7.97;3.28;;;14.00;99.90;;;;;;4884967;29;20048;-80
2021/10/29 17:11:55;;;;;;;5.13;2.45;;;13.90;99.90;;;;;;4899431;29;20063;-82
2021/10/29 17:14:24;;;;;;;6.97;3.15;;;13.90;99.90;;;;;;4894361;29;20071;-83
2021/10/29 17:17:01;;;;;;;4.03;2.50;;;13.90;99.90;;;;;;4885837;29;20040;-81
2021/10/29 17:19:30;;;;;;;5.32;3.60;;;13.80;99.90;;;;;;4884753;29;20445;-81
2021/10/29 17:22:41;;;;;;;6.82;3.90;;;13.80;99.90;;;;;;4882147;29;20043;-83
2021/10/29 17:25:24;;;;;;;5.75;3.72;;;13.80;99.90;;;;;;4888173;29;20035;-83
2021/10/29 17:28:18;;;;;;;11.15;5.68;;;13.80;99.90;;;;;;4865506;29;20059;-86
2021/10/29 17:30:44;;;;;;;7.95;4.82;;;13.80;99.90;;;;;;4885093;29;20059;-84
2021/10/29 17:33:17;;;;;;;7.18;4.85;;;13.70;99.90;;;;;;4875766;29;20628;-83
2021/10/29 17:35:43;;;;;;;;;;;13.70;99.90;;;;;;4886614;29;20523;-84
2021/10/29 17:38:12;;;;;;;6.65;3.67;;;13.70;99.90;;;;;;4879403;29;19927;-84
2021/10/29 17:40:42;;;;;;;5.38;3.30;;;13.70;99.90;;;;;;4872632;29;20036;-81
2021/10/29 17:43:09;;;;;;;5.80;3.13;;;13.70;99.90;;;;;;4869670;29;20052;-83
2021/10/29 17:45:35;;;;;;;4.20;2.72;;;13.60;99.90;;;;;;4864983;29;20260;-83
2021/10/29 17:48:09;;;;;;;4.63;2.53;;;13.60;99.90;;;;;;4866351;29;20053;-81
2021/10/29 17:50:40;;;;;;;4.68;2.70;;;13.60;99.90;;;;;;4855273;29;20040;-83
2021/10/29 17:57:51;;;;;;;7.68;2.97;;;13.50;99.90;;;;;;4807785;29;20379;-83
2021/10/29 18:00:21;;;;;;;4.13;1.92;;;13.50;99.90;;;;;;4810307;29;20038;-82
2021/10/29 18:03:27;;;;;;;4.22;2.10;;;13.50;99.90;;;;;;4831706;29;20057;-83
2021/10/29 18:06:02;;;;;;;2.53;1.05;;;13.40;99.90;;;;;;4899249;29;20396;-84
2021/10/29 18:08:37;;;;;;;5.93;1.50;;;13.40;99.90;;;;;;4855135;29;21302;-84
2021/10/29 18:11:04;;;;;;;2.67;1.42;;;13.40;99.90;;;;;;4871006;29;20708;-84
2021/10/29 18:13:31;;;;;;;3.47;1.45;;;13.30;99.90;;;;;;4871334;29;20048;-84
2021/10/29 18:15:57;;;;;;;1.98;1.23;;;13.40;99.90;;;;;;4855139;29;20028;-87
2021/10/29 18:18:24;;;;;;;3.80;1.60;;;13.40;99.90;;;;;;4907129;29;20032;-85
2021/10/29 18:25:05;;;;;;;3.85;1.75;;;13.30;99.90;;;;;;4825244;29;20046;-83
2021/10/29 18:27:44;;;;;;;5.05;2.40;;;13.30;99.90;;;;;;4791759;29;20050;-84
2021/10/29 18:30:21;;;;;;;3.50;2.17;;;13.30;99.90;;;;;;4811033;29;20078;-83
2021/10/29 18:33:07;;;;;;;5.93;4.20;;;13.30;99.90;;;;;;4815713;29;20070;-84
2021/10/29 18:36:16;;;;;;;7.47;3.63;;;13.30;99.90;;;;;;4807270;29;20046;-82
2021/10/29 18:38:45;;;;;;;6.38;3.53;;;13.30;99.90;;;;;;4791777;29;20049;-87
2021/10/29 18:41:24;;;;;;;6.05;3.10;;;13.20;99.90;;;;;;4774083;29;20055;-83
2021/10/29 18:44:03;;;;;;;5.63;2.92;;;13.30;99.90;;;;;;4774020;29;20038;-84
2021/10/29 18:46:38;;;;;;;5.50;3.15;;;13.30;99.90;;;;;;4775564;29;20034;-85
2021/10/29 18:49:05;;;;;;;5.68;2.45;;;13.30;99.90;;;;;;4852631;29;20053;-86
2021/10/29 18:51:32;;;;;;;6.55;2.40;;;13.30;99.90;;;;;;4827261;29;20046;-85
2021/10/29 18:53:59;;;;;;;4.43;2.38;;;13.30;99.90;;;;;;4839229;29;20049;-83
2021/10/29 18:56:27;;;;;;;4.25;2.85;;;13.20;99.90;;;;;;4823684;29;20691;-86
2021/10/29 18:58:57;;;;;;;6.72;3.88;;;13.20;99.90;;;;;;4847527;29;20052;-78
2021/10/29 19:01:26;;;;;;;4.03;2.40;;;13.20;99.90;;;;;;4840239;29;20044;-78
2021/10/29 19:03:53;;;;;;;3.63;2.38;;;13.20;99.90;;;;;;4900883;29;20047;-78
2021/10/29 19:06:19;;;;;;;4.10;2.70;;;13.20;99.90;;;;;;4892045;29;20036;-78
2021/10/29 19:08:46;;;;;;;3.28;2.38;;;13.20;99.90;;;;;;4868075;29;20411;-78
2021/10/29 19:11:13;;;;;;;5.00;2.30;;;13.20;99.90;;;;;;4885941;29;20046;-81
2021/10/29 19:13:42;;;;;;;4.38;2.38;;;13.20;99.90;;;;;;4898330;29;20036;-86
2021/10/29 19:16:09;;;;;;;9.50;6.28;;;13.20;99.90;;;;;;4883612;29;20051;-82
2021/10/29 19:19:07;;;;;;;9.68;5.10;;;13.20;99.90;;;;;;4863666;29;20493;-85
2021/10/29 19:21:38;;;;;;;6.38;4.55;;;13.20;99.90;;;;;;4871469;29;20043;-85
2021/10/29 19:24:05;;;;;;;7.25;4.25;;;13.20;99.90;;;;;;4898525;29;20032;-86
2021/10/29 19:26:40;;;;;;;5.72;3.65;;;13.20;99.90;;;;;;4881557;29;20064;-85
2021/10/29 19:29:07;;;;;;;4.65;3.60;;;13.20;99.90;;;;;;4883806;29;20518;-86
2021/10/29 19:31:34;;;;;;;4.78;3.55;;;13.20;99.90;;;;;;4883512;29;20028;-84
2021/10/29 19:34:01;;;;;;;5.00;3.40;;;13.20;99.90;;;;;;4904568;29;20043;-85
2021/10/29 19:36:44;;;;;;;4.45;2.22;;;13.20;99.90;;;;;;4900705;29;20471;-82
2021/10/29 19:43:44;;;;;;;7.22;4.38;;;13.20;99.90;;;;;;4894833;29;20040;-81
2021/10/29 19:46:48;;;;;;;6.45;3.50;;;13.20;99.90;;;;;;4887143;29;20044;-81